Almira, Washington
Current Conditions -  °F | °C
As of 11:53 PM on Tuesday 25 Nov 2014 (Local Time) from KEPH Reporting Station
Overcast Overcast  
Wind Chill: 33°   Ceiling: 1300
Heat Index: 37°   Visibility: 8mi
Dew Point: 36°   Wind: 5mph
Humidity: 96%   Direction: 340°NNW
Pressure: 30.2"   Gusts: NA
Location:  47.71°N, 118.94°W
Report Text: KEPH 260753Z AUTO 34004KT 8SM OVC013 03/02 A3020 RMK AO2 SLP235 T00280022 400500000
Loading
Personal Weather Stations






























Interactive Weather Map New forecast layout! Learn more

10-Day Weather Forecast

Advertisements
Track Severe Weather on mobile